createdAt,value
2018-05-26T00:00:27.877Z,83.91
2018-05-26T00:01:27.805Z,83.91
2018-05-26T00:02:27.727Z,84.05
2018-05-26T00:03:27.641Z,84.19
2018-05-26T00:04:27.567Z,84.19
2018-05-26T00:05:27.492Z,84.58
2018-05-26T00:06:27.423Z,85.34
2018-05-26T00:07:27.328Z,84.91
2018-05-26T00:08:27.254Z,84.95
2018-05-26T00:09:27.178Z,85.34
2018-05-26T00:10:27.104Z,85.53
2018-05-26T00:11:27.018Z,86.11
2018-05-26T00:12:26.942Z,86.11
2018-05-26T00:13:26.867Z,85.44
2018-05-26T00:14:26.796Z,86.21
2018-05-26T00:15:26.705Z,85.88
2018-05-26T00:16:26.632Z,86.88
2018-05-26T00:17:26.555Z,86.45
2018-05-26T00:18:26.493Z,86.64
2018-05-26T00:19:26.394Z,86.83
2018-05-26T00:20:26.317Z,87.12
2018-05-26T00:21:26.243Z,86.83
2018-05-26T00:22:26.168Z,86.93
2018-05-26T00:23:26.081Z,86.97
2018-05-26T00:24:26.006Z,86.97
2018-05-26T00:25:25.968Z,87.07
2018-05-26T00:26:25.855Z,86.40
2018-05-26T00:27:25.782Z,86.88
2018-05-26T00:28:25.694Z,86.97
2018-05-26T00:29:25.663Z,86.30
2018-05-26T00:30:25.543Z,86.97
2018-05-26T00:31:25.457Z,86.11
2018-05-26T00:32:25.380Z,86.30
2018-05-26T00:33:25.306Z,85.53
2018-05-26T00:34:25.230Z,85.53
2018-05-26T00:35:25.156Z,85.48
2018-05-26T00:36:25.070Z,86.21
2018-05-26T00:37:24.994Z,85.63
2018-05-26T00:38:24.920Z,85.92
2018-05-26T00:39:24.845Z,86.40
2018-05-26T00:40:24.759Z,86.25
2018-05-26T00:41:24.684Z,87.07
2018-05-26T00:42:24.607Z,86.40
2018-05-26T00:43:24.532Z,85.53
2018-05-26T00:44:24.457Z,86.01
2018-05-26T00:45:24.370Z,85.92
2018-05-26T00:46:24.296Z,85.72
2018-05-26T00:47:24.219Z,86.40
2018-05-26T00:48:24.132Z,86.58
2018-05-26T00:49:24.058Z,86.68
2018-05-26T00:50:23.996Z,86.88
2018-05-26T00:51:23.907Z,86.40
2018-05-26T00:52:23.821Z,86.88
2018-05-26T00:53:23.746Z,87.35
2018-05-26T00:54:23.672Z,86.88
2018-05-26T00:55:23.598Z,87.16
2018-05-26T00:56:23.508Z,87.35
2018-05-26T00:57:23.433Z,86.58
2018-05-26T00:58:23.358Z,87.74
2018-05-26T00:59:23.298Z,87.07
2018-05-26T01:00:23.198Z,87.84
2018-05-26T01:01:23.122Z,87.84
2018-05-26T01:02:23.047Z,87.16
2018-05-26T01:03:22.972Z,87.35
2018-05-26T01:04:22.896Z,88.12
2018-05-26T01:05:22.809Z,87.93
2018-05-26T01:06:22.747Z,88.51
2018-05-26T01:07:22.659Z,88.56
2018-05-26T01:08:22.585Z,88.65
2018-05-26T01:09:22.497Z,89.51
2018-05-26T01:10:22.422Z,89.23
2018-05-26T01:11:22.347Z,89.13
2018-05-26T01:12:22.261Z,89.04
2018-05-26T01:13:22.184Z,89.42
2018-05-26T01:14:22.118Z,89.42
2018-05-26T01:15:22.037Z,89.90
2018-05-26T01:16:21.962Z,89.71
2018-05-26T01:17:21.873Z,90.00
2018-05-26T01:18:21.799Z,90.00
2018-05-26T01:19:21.724Z,90.09
2018-05-26T01:20:21.637Z,90.19
2018-05-26T01:21:21.561Z,90.57
2018-05-26T01:22:21.486Z,90.09
2018-05-26T01:23:21.411Z,89.71
2018-05-26T01:24:21.325Z,90.67
2018-05-26T01:25:21.250Z,90.47
2018-05-26T01:26:21.174Z,90.47
2018-05-26T01:27:21.100Z,89.71
2018-05-26T01:28:21.012Z,89.61
2018-05-26T01:29:20.936Z,90.09
2018-05-26T01:30:20.863Z,90.00
2018-05-26T01:31:20.790Z,89.61
2018-05-26T01:32:20.701Z,90.09
2018-05-26T01:33:20.625Z,90.43
2018-05-26T01:34:20.551Z,90.81
2018-05-26T01:35:20.476Z,91.00
2018-05-26T01:36:20.388Z,91.39
2018-05-26T01:37:20.312Z,90.91
2018-05-26T01:38:20.237Z,91.29
2018-05-26T01:39:20.163Z,91.58
2018-05-26T01:40:20.077Z,91.39
2018-05-26T01:41:20.002Z,91.86
2018-05-26T01:42:19.939Z,91.49
2018-05-26T01:43:19.839Z,91.77
2018-05-26T01:44:19.763Z,91.49
2018-05-26T01:45:19.702Z,91.77
2018-05-26T01:46:19.660Z,91.96
2018-05-26T01:47:19.531Z,92.06
2018-05-26T01:48:19.451Z,92.40
2018-05-26T01:49:19.378Z,92.35
2018-05-26T01:50:19.301Z,92.21
2018-05-26T01:51:19.214Z,92.21
2018-05-26T01:52:19.141Z,92.21
2018-05-26T01:53:19.064Z,92.30
2018-05-26T01:54:18.977Z,92.68
2018-05-26T01:55:18.902Z,92.30
2018-05-26T01:56:18.828Z,92.21
2018-05-26T01:57:18.752Z,92.30
2018-05-26T01:58:18.665Z,92.40
2018-05-26T01:59:18.602Z,92.68
2018-05-26T02:00:18.515Z,92.49
2018-05-26T02:01:18.430Z,92.01
2018-05-26T02:02:18.353Z,92.68
2018-05-26T02:03:18.279Z,92.68
2018-05-26T02:04:18.203Z,92.68
2018-05-26T02:05:18.115Z,92.58
2018-05-26T02:06:18.040Z,92.49
2018-05-26T02:07:17.965Z,92.30
2018-05-26T02:08:17.879Z,92.40
2018-05-26T02:09:17.803Z,92.63
2018-05-26T02:10:17.729Z,92.35
2018-05-26T02:11:17.641Z,92.63
2018-05-26T02:12:17.565Z,92.73
2018-05-26T02:13:17.493Z,92.63
2018-05-26T02:14:17.416Z,91.97
2018-05-26T02:15:17.330Z,92.63
2018-05-26T02:16:17.255Z,92.63
2018-05-26T02:17:17.181Z,92.44
2018-05-26T02:18:17.092Z,92.44
2018-05-26T02:19:17.017Z,92.73
2018-05-26T02:20:16.942Z,92.54
2018-05-26T02:21:16.855Z,92.78
2018-05-26T02:22:16.785Z,92.44
2018-05-26T02:23:16.705Z,92.73
2018-05-26T02:24:16.617Z,92.92
2018-05-26T02:25:16.556Z,92.83
2018-05-26T02:26:16.467Z,92.44
2018-05-26T02:27:16.392Z,93.02
2018-05-26T02:28:16.306Z,92.92
2018-05-26T02:29:16.231Z,92.44
2018-05-26T02:30:16.160Z,93.40
2018-05-26T02:31:16.069Z,92.73
2018-05-26T02:32:15.993Z,93.02
2018-05-26T02:33:15.918Z,92.25
2018-05-26T02:34:15.831Z,92.54
2018-05-26T02:35:15.757Z,92.25
2018-05-26T02:36:15.683Z,92.73
2018-05-26T02:37:15.595Z,92.73
2018-05-26T02:38:15.519Z,92.83
2018-05-26T02:39:15.444Z,92.83
2018-05-26T02:40:15.357Z,92.16
2018-05-26T02:41:15.287Z,92.73
2018-05-26T02:42:15.218Z,92.83
2018-05-26T02:43:15.132Z,92.44
2018-05-26T02:44:15.044Z,92.44
2018-05-26T02:45:14.970Z,92.92
2018-05-26T02:46:14.894Z,93.30
2018-05-26T02:47:14.809Z,92.83
2018-05-26T02:48:14.737Z,91.97
2018-05-26T02:49:14.658Z,92.25
2018-05-26T02:50:14.570Z,92.54
2018-05-26T02:51:14.494Z,92.73
2018-05-26T02:52:14.437Z,93.21
2018-05-26T02:53:14.333Z,93.21
2018-05-26T02:54:14.259Z,93.02
2018-05-26T02:55:14.184Z,92.44
2018-05-26T02:56:14.095Z,93.02
2018-05-26T02:57:14.020Z,93.12
2018-05-26T02:58:13.949Z,93.02
2018-05-26T02:59:13.869Z,93.21
2018-05-26T03:00:13.784Z,93.59
2018-05-26T03:01:13.711Z,93.64
2018-05-26T03:02:13.622Z,93.54
2018-05-26T03:03:13.546Z,93.54
2018-05-26T03:04:13.471Z,93.45
2018-05-26T03:05:13.386Z,93.64
2018-05-26T03:06:13.309Z,93.07
2018-05-26T03:07:13.235Z,93.26
2018-05-26T03:08:13.148Z,93.54
2018-05-26T03:09:13.085Z,93.35
2018-05-26T03:10:12.997Z,92.68
2018-05-26T03:11:12.923Z,93.45
2018-05-26T03:12:12.835Z,93.16
2018-05-26T03:13:12.761Z,92.68
2018-05-26T03:14:12.689Z,93.07
2018-05-26T03:15:12.598Z,93.35
2018-05-26T03:16:12.542Z,93.16
2018-05-26T03:17:12.448Z,93.07
2018-05-26T03:18:12.361Z,93.45
2018-05-26T03:19:12.285Z,93.26
2018-05-26T03:20:12.211Z,93.54
2018-05-26T03:21:12.123Z,92.68
2018-05-26T03:22:12.048Z,93.16
2018-05-26T03:23:11.975Z,93.83
2018-05-26T03:24:11.886Z,93.45
2018-05-26T03:25:11.813Z,93.74
2018-05-26T03:26:11.737Z,92.97
2018-05-26T03:27:11.649Z,92.97
2018-05-26T03:28:11.588Z,93.45
2018-05-26T03:29:11.499Z,93.26
2018-05-26T03:30:11.413Z,93.35
2018-05-26T03:31:11.351Z,93.26
2018-05-26T03:32:11.263Z,93.35
2018-05-26T03:33:11.191Z,93.26
2018-05-26T03:34:11.099Z,93.45
2018-05-26T03:35:11.025Z,93.79
2018-05-26T03:36:10.949Z,93.30
2018-05-26T03:37:10.863Z,93.30
2018-05-26T03:38:10.788Z,93.02
2018-05-26T03:39:10.716Z,93.40
2018-05-26T03:40:10.639Z,93.69
2018-05-26T03:41:10.550Z,93.50
2018-05-26T03:42:10.474Z,93.69
2018-05-26T03:43:10.388Z,93.21
2018-05-26T03:44:10.314Z,92.92
2018-05-26T03:45:10.239Z,93.88
2018-05-26T03:46:10.151Z,93.88
2018-05-26T03:47:10.075Z,92.92
2018-05-26T03:48:10.006Z,93.50
2018-05-26T03:49:09.914Z,93.69
2018-05-26T03:50:09.839Z,93.21
2018-05-26T03:51:09.764Z,93.59
2018-05-26T03:52:09.677Z,93.88
2018-05-26T03:53:09.601Z,93.50
2018-05-26T03:54:09.528Z,93.98
2018-05-26T03:55:09.452Z,93.50
2018-05-26T03:56:09.364Z,92.83
2018-05-26T03:57:09.290Z,93.40
2018-05-26T03:58:09.215Z,93.12
2018-05-26T03:59:09.127Z,92.87
2018-05-26T04:00:09.052Z,93.69
2018-05-26T04:01:08.977Z,93.30
2018-05-26T04:02:08.890Z,93.45
2018-05-26T04:03:08.815Z,93.30
2018-05-26T04:04:08.744Z,93.69
2018-05-26T04:05:08.665Z,93.50
2018-05-26T04:06:08.583Z,93.45
2018-05-26T04:07:08.503Z,93.45
2018-05-26T04:08:08.429Z,93.54
2018-05-26T04:09:08.341Z,93.64
2018-05-26T04:10:08.268Z,93.54
2018-05-26T04:11:08.191Z,93.64
2018-05-26T04:12:08.103Z,94.12
2018-05-26T04:13:08.028Z,94.21
2018-05-26T04:14:07.962Z,92.87
2018-05-26T04:15:07.866Z,93.26
2018-05-26T04:16:07.792Z,94.21
2018-05-26T04:17:07.717Z,93.64
2018-05-26T04:18:07.628Z,94.31
2018-05-26T04:19:07.553Z,94.40
2018-05-26T04:20:07.479Z,94.02
2018-05-26T04:21:07.393Z,93.93
2018-05-26T04:22:07.318Z,94.35
2018-05-26T04:23:07.247Z,93.49
2018-05-26T04:24:07.155Z,93.02
2018-05-26T04:25:07.080Z,94.64
2018-05-26T04:26:07.018Z,94.45
2018-05-26T04:27:06.929Z,94.17
2018-05-26T04:28:06.871Z,93.98
2018-05-26T04:29:06.772Z,93.73
2018-05-26T04:30:06.694Z,92.77
2018-05-26T04:31:06.618Z,93.54
2018-05-26T04:32:06.529Z,92.97
2018-05-26T04:33:06.455Z,93.63
2018-05-26T04:34:06.380Z,92.82
2018-05-26T04:35:06.294Z,92.63
2018-05-26T04:36:06.220Z,91.86
2018-05-26T04:37:06.151Z,91.77
2018-05-26T04:38:06.056Z,91.52
2018-05-26T04:39:05.981Z,89.94
2018-05-26T04:40:05.919Z,88.02
2018-05-26T04:41:05.831Z,86.62
2018-05-26T04:42:05.744Z,85.66
2018-05-26T04:43:05.670Z,83.84
2018-05-26T04:44:05.595Z,84.60
2018-05-26T04:45:05.520Z,85.75
2018-05-26T04:46:05.431Z,85.47
2018-05-26T04:47:05.357Z,84.80
2018-05-26T04:48:05.282Z,83.49
2018-05-26T04:49:05.196Z,82.92
2018-05-26T04:50:05.123Z,81.96
2018-05-26T04:51:05.055Z,80.84
2018-05-26T04:52:04.970Z,81.61
2018-05-26T04:53:04.898Z,81.56
2018-05-26T04:54:04.807Z,79.92
2018-05-26T04:55:04.732Z,79.82
2018-05-26T04:56:04.661Z,79.53
2018-05-26T04:57:04.582Z,80.55
2018-05-26T04:58:04.496Z,81.48
2018-05-26T04:59:04.422Z,83.97
2018-05-26T05:00:04.351Z,84.17
2018-05-26T05:01:04.271Z,85.41
2018-05-26T05:02:04.195Z,84.45
2018-05-26T05:03:04.111Z,83.64
2018-05-26T05:04:04.034Z,85.08
2018-05-26T05:05:03.958Z,86.91
2018-05-26T05:06:03.884Z,86.05
2018-05-26T05:07:03.808Z,86.52
2018-05-26T05:08:03.733Z,85.95
2018-05-26T05:09:03.647Z,87.29
2018-05-26T05:10:03.572Z,86.52
2018-05-26T05:11:03.497Z,86.05
2018-05-26T05:12:03.426Z,86.05
2018-05-26T05:13:03.334Z,86.43
2018-05-26T05:14:03.259Z,86.72
2018-05-26T05:15:03.186Z,86.14
2018-05-26T05:16:03.109Z,86.91
2018-05-26T05:17:03.035Z,87.96
2018-05-26T05:18:02.952Z,87.01
2018-05-26T05:19:02.873Z,87.10
2018-05-26T05:20:02.798Z,87.10
2018-05-26T05:21:02.727Z,85.85
2018-05-26T05:22:02.649Z,87.87
2018-05-26T05:23:02.562Z,86.81
2018-05-26T05:24:02.485Z,87.15
2018-05-26T05:25:02.414Z,87.34
2018-05-26T05:26:02.336Z,86.57
2018-05-26T05:27:02.275Z,85.13
2018-05-26T05:28:02.175Z,85.13
2018-05-26T05:29:02.100Z,86.47
2018-05-26T05:30:02.036Z,86.95
2018-05-26T05:31:01.950Z,85.32
2018-05-26T05:32:01.875Z,86.95
2018-05-26T05:33:01.789Z,86.76
2018-05-26T05:34:01.713Z,87.53
2018-05-26T05:35:01.637Z,87.15
2018-05-26T05:36:01.576Z,87.05
2018-05-26T05:37:01.490Z,86.95
2018-05-26T05:38:01.411Z,86.95
2018-05-26T05:39:01.341Z,85.61
2018-05-26T05:40:01.249Z,86.47
2018-05-26T05:41:01.176Z,87.72
2018-05-26T05:42:01.102Z,86.18
2018-05-26T05:43:01.026Z,86.18
2018-05-26T05:44:00.939Z,86.32
2018-05-26T05:45:00.863Z,84.88
2018-05-26T05:46:01.038Z,85.22
2018-05-26T05:47:00.714Z,84.17
2018-05-26T05:48:00.638Z,85.13
2018-05-26T05:49:00.563Z,84.69
2018-05-26T05:50:00.478Z,84.55
2018-05-26T05:51:00.401Z,85.65
2018-05-26T05:52:00.327Z,83.92
2018-05-26T05:53:00.252Z,85.65
2018-05-26T05:54:00.178Z,85.27
2018-05-26T05:55:00.103Z,86.32
2018-05-26T05:56:00.014Z,84.11
2018-05-26T05:56:59.939Z,82.48
2018-05-26T05:57:59.864Z,82.57
2018-05-26T05:58:59.789Z,83.73
2018-05-26T05:59:59.715Z,84.40
2018-05-26T06:00:59.928Z,84.30
2018-05-26T06:01:59.553Z,85.07
2018-05-26T06:02:59.481Z,83.53
2018-05-26T06:03:59.403Z,84.98
2018-05-26T06:04:59.329Z,84.01
2018-05-26T06:05:59.272Z,82.86
2018-05-26T06:06:59.167Z,81.42
2018-05-26T06:07:59.090Z,82.09
2018-05-26T06:08:59.016Z,83.25
2018-05-26T06:09:58.941Z,82.57
2018-05-26T06:10:59.116Z,81.61
2018-05-26T06:11:58.792Z,82.38
2018-05-26T06:12:58.704Z,82.38
2018-05-26T06:13:58.630Z,81.32
2018-05-26T06:14:58.607Z,82.48
2018-05-26T06:15:58.481Z,82.52
2018-05-26T06:16:58.405Z,82.81
2018-05-26T06:17:58.330Z,81.17
2018-05-26T06:18:58.255Z,81.27
2018-05-26T06:19:58.167Z,80.30
2018-05-26T06:20:58.093Z,80.46
2018-05-26T06:21:58.018Z,80.21
2018-05-26T06:22:57.946Z,80.50
2018-05-26T06:23:57.868Z,79.82
2018-05-26T06:24:57.782Z,79.63
2018-05-26T06:25:57.706Z,78.58
2018-05-26T06:26:57.631Z,78.48
2018-05-26T06:27:57.557Z,78.58
2018-05-26T06:28:57.484Z,78.86
2018-05-26T06:29:57.407Z,80.30
2018-05-26T06:30:57.331Z,79.92
2018-05-26T06:31:57.266Z,79.92
2018-05-26T06:32:57.168Z,79.25
2018-05-26T06:33:57.094Z,79.25
2018-05-26T06:34:57.019Z,79.10
2018-05-26T06:35:57.000Z,78.23
2018-05-26T06:36:56.869Z,78.90
2018-05-26T06:37:56.785Z,78.90
2018-05-26T06:38:56.707Z,78.71
2018-05-26T06:39:56.632Z,78.52
2018-05-26T06:40:56.558Z,78.52
2018-05-26T06:41:56.486Z,79.28
2018-05-26T06:42:56.408Z,77.46
2018-05-26T06:43:56.333Z,78.61
2018-05-26T06:44:56.266Z,79.96
2018-05-26T06:45:56.170Z,78.81
2018-05-26T06:46:56.095Z,77.78
2018-05-26T06:47:56.019Z,78.27
2018-05-26T06:48:55.958Z,77.98
2018-05-26T06:49:55.877Z,78.08
2018-05-26T06:50:55.795Z,78.46
2018-05-26T06:51:55.723Z,77.15
2018-05-26T06:52:55.649Z,74.45
2018-05-26T06:53:55.559Z,75.32
2018-05-26T06:54:55.489Z,75.03
2018-05-26T06:55:55.409Z,76.18
2018-05-26T06:56:55.336Z,74.65
2018-05-26T06:57:55.259Z,72.72
2018-05-26T06:58:55.186Z,71.95
2018-05-26T06:59:55.110Z,72.14
2018-05-26T07:00:55.286Z,72.37
2018-05-26T07:01:54.960Z,73.58
2018-05-26T07:02:54.875Z,72.27
2018-05-26T07:03:54.797Z,71.60
2018-05-26T07:04:54.722Z,71.98
2018-05-26T07:05:54.646Z,71.31
2018-05-26T07:06:54.575Z,70.57
2018-05-26T07:07:54.500Z,70.67
2018-05-26T07:08:54.422Z,71.54
2018-05-26T07:09:54.347Z,69.93
2018-05-26T07:10:54.272Z,69.84
2018-05-26T07:11:54.198Z,68.19
2018-05-26T07:12:54.122Z,67.52
2018-05-26T07:13:54.049Z,68.29
2018-05-26T07:14:53.976Z,67.36
2018-05-26T07:15:53.887Z,66.88
2018-05-26T07:16:53.812Z,64.86
2018-05-26T07:17:53.740Z,64.76
2018-05-26T07:18:53.661Z,65.27
2018-05-26T07:19:53.587Z,64.01
2018-05-26T07:20:53.761Z,63.63
2018-05-26T07:21:53.437Z,62.57
2018-05-26T07:22:53.362Z,63.05
2018-05-26T07:23:53.291Z,63.47
2018-05-26T07:24:53.223Z,62.50
2018-05-26T07:25:53.149Z,60.76
2018-05-26T07:26:53.074Z,61.34
2018-05-26T07:27:53.044Z,62.12
2018-05-26T07:28:52.924Z,59.25
2018-05-26T07:29:52.849Z,57.54
2018-05-26T07:30:52.774Z,57.56
2018-05-26T07:31:52.701Z,56.88
2018-05-26T07:32:52.624Z,57.08
2018-05-26T07:33:52.551Z,56.92
2018-05-26T07:34:52.488Z,55.58
2018-05-26T07:35:52.416Z,55.46
2018-05-26T07:36:52.338Z,54.45
2018-05-26T07:37:52.275Z,54.16
2018-05-26T07:38:52.213Z,53.70
2018-05-26T07:39:52.125Z,52.28
2018-05-26T07:40:52.051Z,51.04
2018-05-26T07:41:51.976Z,49.73
2018-05-26T07:42:51.913Z,47.61
2018-05-26T07:43:51.839Z,47.03
2018-05-26T07:44:51.775Z,45.79
2018-05-26T07:45:51.715Z,46.67
2018-05-26T07:46:51.627Z,47.13
2018-05-26T07:47:51.564Z,48.10
2018-05-26T07:48:51.491Z,46.57
2018-05-26T07:49:51.427Z,47.44
2018-05-26T07:50:51.352Z,46.40
2018-05-26T07:51:51.291Z,45.50
2018-05-26T07:52:51.215Z,44.33
2018-05-26T07:53:51.152Z,47.91
2018-05-26T07:54:51.077Z,45.23
2018-05-26T07:55:51.016Z,44.76
2018-05-26T07:56:50.952Z,43.96
2018-05-26T07:57:50.877Z,44.16
2018-05-26T07:58:50.855Z,43.89
2018-05-26T07:59:50.742Z,43.38
2018-05-26T08:00:50.677Z,44.28
2018-05-26T08:01:50.617Z,43.52
2018-05-26T08:02:50.541Z,42.76
2018-05-26T08:03:50.477Z,42.82
2018-05-26T08:04:50.416Z,44.76
2018-05-26T08:05:50.348Z,43.21
2018-05-26T08:06:50.278Z,42.82
2018-05-26T08:07:50.221Z,42.60
2018-05-26T08:08:50.166Z,42.63
2018-05-26T08:09:50.079Z,44.14
2018-05-26T08:10:50.030Z,44.67
2018-05-26T08:11:49.957Z,44.26
2018-05-26T08:12:49.880Z,43.50
2018-05-26T08:13:49.817Z,42.91
2018-05-26T08:14:49.756Z,43.11
2018-05-26T08:15:49.693Z,41.77
2018-05-26T08:16:49.618Z,40.52
2018-05-26T08:17:49.555Z,40.64
2018-05-26T08:18:49.493Z,40.47
2018-05-26T08:19:49.431Z,40.09
2018-05-26T08:20:49.360Z,39.62
2018-05-26T08:21:49.293Z,40.21
2018-05-26T08:22:49.230Z,39.94
2018-05-26T08:23:49.168Z,38.87
2018-05-26T08:24:49.105Z,40.00
2018-05-26T08:25:49.032Z,39.00
2018-05-26T08:26:48.969Z,38.82
2018-05-26T08:27:48.906Z,38.38
2018-05-26T08:28:48.844Z,37.89
2018-05-26T08:29:48.780Z,38.32
2018-05-26T08:30:48.720Z,40.29
2018-05-26T08:31:48.645Z,39.31
2018-05-26T08:32:48.581Z,39.72
2018-05-26T08:33:48.531Z,38.48
2018-05-26T08:34:48.456Z,38.55
2018-05-26T08:35:48.398Z,38.02
2018-05-26T08:36:48.345Z,39.51
2018-05-26T08:37:48.275Z,38.06
2018-05-26T08:38:48.208Z,37.60
2018-05-26T08:39:48.145Z,37.32
2018-05-26T08:40:48.078Z,37.55
2018-05-26T08:41:48.007Z,37.60
2018-05-26T08:42:47.945Z,37.12
2018-05-26T08:43:47.883Z,36.72
2018-05-26T08:44:47.821Z,36.15
2018-05-26T08:45:47.758Z,34.80
2018-05-26T08:46:47.696Z,35.28
2018-05-26T08:47:47.635Z,35.22
2018-05-26T08:48:47.573Z,35.60
2018-05-26T08:49:47.508Z,34.52
2018-05-26T08:50:47.447Z,36.93
2018-05-26T08:51:47.375Z,36.34
2018-05-26T08:52:47.315Z,35.79
2018-05-26T08:53:47.251Z,35.61
2018-05-26T08:54:47.203Z,35.68
2018-05-26T08:55:47.121Z,36.49
2018-05-26T08:56:47.059Z,37.73
2018-05-26T08:57:46.997Z,37.37
2018-05-26T08:58:46.948Z,38.32
2018-05-26T08:59:46.932Z,38.16
2018-05-26T09:00:46.810Z,37.57
2018-05-26T09:01:46.748Z,37.62
2018-05-26T09:02:46.685Z,39.28
2018-05-26T09:03:46.623Z,38.43
2018-05-26T09:04:46.561Z,38.16
2018-05-26T09:05:46.499Z,37.57
2018-05-26T09:06:46.453Z,36.23
2018-05-26T09:07:46.385Z,35.94
2018-05-26T09:08:46.310Z,35.27
2018-05-26T09:09:46.248Z,35.85
2018-05-26T09:10:46.185Z,37.01
2018-05-26T09:11:46.124Z,37.57
2018-05-26T09:12:46.060Z,37.17
2018-05-26T09:13:45.999Z,35.55
2018-05-26T09:14:45.949Z,34.58
2018-05-26T09:15:45.876Z,35.64
2018-05-26T09:16:45.811Z,35.17
2018-05-26T09:17:45.750Z,34.80
2018-05-26T09:18:45.738Z,35.21
2018-05-26T09:19:45.624Z,35.19
2018-05-26T09:20:45.561Z,35.91
2018-05-26T09:21:45.554Z,35.22
2018-05-26T09:22:45.437Z,37.09
2018-05-26T09:23:45.375Z,34.38
2018-05-26T09:24:45.312Z,34.89
2018-05-26T09:25:45.250Z,35.32
2018-05-26T09:26:45.187Z,34.41
2018-05-26T09:27:45.126Z,37.27
2018-05-26T09:28:45.063Z,37.67
2018-05-26T09:29:45.001Z,37.41
2018-05-26T09:30:44.938Z,38.04
2018-05-26T09:31:44.876Z,37.50
2018-05-26T09:32:44.813Z,36.26
2018-05-26T09:33:44.751Z,36.49
2018-05-26T09:34:44.688Z,34.54
2018-05-26T09:35:44.627Z,34.44
2018-05-26T09:36:44.564Z,34.55
2018-05-26T09:37:44.502Z,35.17
2018-05-26T09:38:44.439Z,36.15
2018-05-26T09:39:44.377Z,35.87
2018-05-26T09:40:44.314Z,35.60
2018-05-26T09:41:44.253Z,34.50
2018-05-26T09:42:44.204Z,34.70
2018-05-26T09:43:44.185Z,33.45
2018-05-26T09:44:44.064Z,34.23
2018-05-26T09:45:44.002Z,34.41
2018-05-26T09:46:43.939Z,33.61
2018-05-26T09:47:43.878Z,34.29
2018-05-26T09:48:43.814Z,35.82
2018-05-26T09:49:43.740Z,37.55
2018-05-26T09:50:43.678Z,38.43
2018-05-26T09:51:43.616Z,36.78
2018-05-26T09:52:43.554Z,36.60
2018-05-26T09:53:43.503Z,36.54
2018-05-26T09:54:43.418Z,35.17
2018-05-26T09:55:43.365Z,36.08
2018-05-26T09:56:43.304Z,37.73
2018-05-26T09:57:43.229Z,38.02
2018-05-26T09:58:43.165Z,37.15
2018-05-26T09:59:43.104Z,36.00
2018-05-26T10:00:43.029Z,37.48
2018-05-26T10:01:42.966Z,37.60
2018-05-26T10:02:42.908Z,36.46
2018-05-26T10:03:42.829Z,34.42
2018-05-26T10:04:42.766Z,33.65
2018-05-26T10:05:42.707Z,33.65
2018-05-26T10:06:42.636Z,35.74
2018-05-26T10:07:42.567Z,35.33
2018-05-26T10:08:42.504Z,34.26
2018-05-26T10:09:42.430Z,36.49
2018-05-26T10:10:42.367Z,36.39
2018-05-26T10:11:42.308Z,36.27
2018-05-26T10:12:42.231Z,38.01
2018-05-26T10:13:42.173Z,39.84
2018-05-26T10:14:42.106Z,39.06
2018-05-26T10:15:42.031Z,39.55
2018-05-26T10:16:41.968Z,38.75
2018-05-26T10:17:41.906Z,39.04
2018-05-26T10:18:41.831Z,39.61
2018-05-26T10:19:41.767Z,39.37
2018-05-26T10:20:41.707Z,40.91
2018-05-26T10:21:41.631Z,41.16
2018-05-26T10:22:41.568Z,41.84
2018-05-26T10:23:41.510Z,42.61
2018-05-26T10:24:41.432Z,42.23
2018-05-26T10:25:41.369Z,42.91
2018-05-26T10:26:41.294Z,43.98
2018-05-26T10:27:41.232Z,44.38
2018-05-26T10:28:41.156Z,44.68
2018-05-26T10:29:41.108Z,43.73
2018-05-26T10:30:41.020Z,43.82
2018-05-26T10:31:40.983Z,44.89
2018-05-26T10:32:40.882Z,44.51
2018-05-26T10:33:40.820Z,44.51
2018-05-26T10:34:40.758Z,44.87
2018-05-26T10:35:40.683Z,44.46
2018-05-26T10:36:40.620Z,45.72
2018-05-26T10:37:40.545Z,43.68
2018-05-26T10:38:40.483Z,44.60
2018-05-26T10:39:40.409Z,44.45
2018-05-26T10:40:40.345Z,41.85
2018-05-26T10:41:40.270Z,42.16
2018-05-26T10:42:40.208Z,42.08
2018-05-26T10:43:40.139Z,39.65
2018-05-26T10:44:40.073Z,40.06
2018-05-26T10:45:39.995Z,39.69
2018-05-26T10:46:39.935Z,36.88
2018-05-26T10:47:39.860Z,37.01
2018-05-26T10:48:39.795Z,34.78
2018-05-26T10:49:39.722Z,34.74
2018-05-26T10:50:39.659Z,34.38
2018-05-26T10:51:39.596Z,32.23
2018-05-26T10:52:39.534Z,31.48
2018-05-26T10:53:39.459Z,32.17
2018-05-26T10:54:39.396Z,33.04
2018-05-26T10:55:39.335Z,32.23
2018-05-26T10:56:39.272Z,32.51
2018-05-26T10:57:39.210Z,32.22
2018-05-26T10:58:39.147Z,32.34
2018-05-26T10:59:39.074Z,35.45
2018-05-26T11:00:39.011Z,36.37
2018-05-26T11:01:38.948Z,37.23
2018-05-26T11:02:38.886Z,38.40
2018-05-26T11:03:38.824Z,38.75
2018-05-26T11:04:38.761Z,40.58
2018-05-26T11:05:38.697Z,42.00
2018-05-26T11:06:38.639Z,42.85
2018-05-26T11:07:38.575Z,42.85
2018-05-26T11:08:38.514Z,41.88
2018-05-26T11:09:38.437Z,41.39
2018-05-26T11:10:38.375Z,40.70
2018-05-26T11:11:38.312Z,38.32
2018-05-26T11:12:38.249Z,36.99
2018-05-26T11:13:38.186Z,35.56
2018-05-26T11:14:38.147Z,33.53
2018-05-26T11:15:38.094Z,33.41
2018-05-26T11:16:37.987Z,32.58
2018-05-26T11:17:37.983Z,32.81
2018-05-26T11:18:37.862Z,30.29
2018-05-26T11:19:37.800Z,29.93
2018-05-26T11:20:37.737Z,31.41
2018-05-26T11:21:37.690Z,30.45
2018-05-26T11:22:37.615Z,29.00
2018-05-26T11:23:37.568Z,30.08
2018-05-26T11:24:37.580Z,28.13
2018-05-26T11:25:37.462Z,28.71
2018-05-26T11:26:37.351Z,29.66
2018-05-26T11:27:37.289Z,31.34
2018-05-26T11:28:37.227Z,32.29
2018-05-26T11:29:37.198Z,32.53
2018-05-26T11:30:37.114Z,32.04
2018-05-26T11:31:37.050Z,32.27
2018-05-26T11:32:36.989Z,31.93
2018-05-26T11:33:36.926Z,31.09
2018-05-26T11:34:36.865Z,30.71
2018-05-26T11:35:36.801Z,30.90
2018-05-26T11:36:36.743Z,31.26
2018-05-26T11:37:36.676Z,31.91
2018-05-26T11:38:36.621Z,32.94
2018-05-26T11:39:36.551Z,31.38
2018-05-26T11:40:36.501Z,30.90
2018-05-26T11:41:36.440Z,31.93
2018-05-26T11:42:36.390Z,32.68
2018-05-26T11:43:36.325Z,31.81
2018-05-26T11:44:36.254Z,32.14
2018-05-26T11:45:36.191Z,33.58
2018-05-26T11:46:36.127Z,33.65
2018-05-26T11:47:36.066Z,33.15
2018-05-26T11:48:36.003Z,32.61
2018-05-26T11:49:35.940Z,30.98
2018-05-26T11:50:35.878Z,31.24
2018-05-26T11:51:35.816Z,32.27
2018-05-26T11:52:35.766Z,33.18
2018-05-26T11:53:35.703Z,34.08
2018-05-26T11:54:35.641Z,33.70
2018-05-26T11:55:35.577Z,33.53
2018-05-26T11:56:35.516Z,33.62
2018-05-26T11:57:35.454Z,35.04
2018-05-26T11:58:35.393Z,36.60
2018-05-26T11:59:35.345Z,37.55
2018-05-26T12:00:35.267Z,36.43
2018-05-26T12:01:35.205Z,37.55
2018-05-26T12:02:35.142Z,35.24
2018-05-26T12:03:35.079Z,36.24
2018-05-26T12:04:35.018Z,37.19
2018-05-26T12:05:34.956Z,37.95
2018-05-26T12:06:34.897Z,38.01
2018-05-26T12:07:34.817Z,38.29
2018-05-26T12:08:34.755Z,38.96
2018-05-26T12:09:34.693Z,35.46
2018-05-26T12:10:34.629Z,35.41
2018-05-26T12:11:34.569Z,33.23
2018-05-26T12:12:34.505Z,31.99
2018-05-26T12:13:34.442Z,30.72
2018-05-26T12:14:34.380Z,29.69
2018-05-26T12:16:16.443Z,28.65
2018-05-26T12:17:16.381Z,27.80
2018-05-26T12:18:16.319Z,29.90
2018-05-26T12:19:16.269Z,30.00
2018-05-26T12:20:16.198Z,30.10
2018-05-26T12:21:16.119Z,29.98
2018-05-26T12:22:16.075Z,29.82
2018-05-26T12:23:58.131Z,28.88
2018-05-26T12:24:58.069Z,26.04
2018-05-26T12:25:58.006Z,26.45
2018-05-26T12:26:58.006Z,26.46
2018-05-26T12:27:57.881Z,26.14
2018-05-26T12:28:57.820Z,27.64
2018-05-26T12:29:57.757Z,28.50
2018-05-26T12:30:57.696Z,30.02
2018-05-26T12:31:57.633Z,31.75
2018-05-26T12:32:57.570Z,33.69
2018-05-26T12:33:57.508Z,34.41
2018-05-26T12:34:57.445Z,32.13
2018-05-26T12:35:57.395Z,33.75
2018-05-26T12:36:57.321Z,32.78
2018-05-26T12:37:57.261Z,32.16
2018-05-26T12:38:57.196Z,31.36
2018-05-26T12:39:57.171Z,31.52
2018-05-26T12:40:57.072Z,31.99
2018-05-26T12:41:57.007Z,32.86
2018-05-26T12:42:56.947Z,33.51
2018-05-26T12:43:56.883Z,35.53
2018-05-26T12:44:56.822Z,35.83
2018-05-26T12:45:56.758Z,35.25
2018-05-26T12:46:56.696Z,34.84
2018-05-26T12:47:56.634Z,35.02
2018-05-26T12:48:56.558Z,36.77
2018-05-26T12:49:56.497Z,38.52
2018-05-26T12:50:56.437Z,38.70
2018-05-26T12:51:56.374Z,37.82
2018-05-26T12:52:56.308Z,39.88